Vintage I — 9HB3056 — position and weather

sailwx.info

Track history (hours):
 
Tides and Currents Weather Stations Pressure Air Temp Water Temp Dewpoint Dewpoint Depression Visibility Wind Speed Wind Dir Waves Ship Positions

Vintage I

Last reported at 2017-Nov-12 00:56 UTC. Time now 2017-Nov-25 00:06 UTC.
Position N 28°28' W 016°15'.
Warning: this ship's position is 12 days out of date.

Length 24 m.

Type: Sailing vessel. MMSI: 229260000.

Date/timePositionNaut miles runAvg speedWind from/ knotsBaromVisibWave heightAir tempDewpointWater temp
2017-Nov-12 00:56N 28°28' W 016°15'0 0.0
2017-Nov-11 23:30N 28°28' W 016°15'0 0.0
2017-Nov-11 22:57N 28°28' W 016°15'0 0.0
2017-Nov-11 22:30N 28°28' W 016°15'0 0.0
2017-Nov-11 21:57N 28°28' W 016°15'0 0.0
2017-Nov-11 21:30N 28°28' W 016°15'0 0.0
2017-Nov-11 20:57N 28°28' W 016°15'0 0.0
2017-Nov-11 20:16N 28°28' W 016°15'0 0.0
2017-Nov-11 20:01N 28°28' W 016°15'0 0.0
2017-Nov-11 19:01N 28°28' W 016°15'0 0.0
2017-Nov-11 18:30N 28°28' W 016°15'0 0.0
2017-Nov-11 17:21N 28°28' W 016°15'0 0.0
2017-Nov-11 16:48N 28°28' W 016°15'0 0.0
2017-Nov-11 16:21N 28°28' W 016°15'0 0.0
2017-Nov-11 16:00N 28°28' W 016°15'0 0.0
2017-Nov-11 15:30N 28°28' W 016°15'0 0.0
2017-Nov-11 14:48N 28°28' W 016°15'0 0.0
2017-Nov-11 14:21N 28°28' W 016°15'0 0.0
2017-Nov-11 14:00N 28°28' W 016°15'0 0.0
2017-Nov-11 13:30N 28°28' W 016°15'0 0.1
2017-Nov-11 13:00N 28°28' W 016°15'1 2.5
2017-Nov-11 12:30N 28°28' W 016°13'4 7.6
2017-Nov-11 12:00N 28°31' W 016°10'4 7.6
2017-Nov-11 11:30N 28°33' W 016°06'4 7.5
2017-Nov-11 11:00N 28°36' W 016°04'4 8.8
2017-Nov-11 10:30N 28°40' W 016°02'4 8.8
2017-Nov-11 10:00N 28°44' W 015°59'4 9.0
2017-Nov-11 09:30N 28°48' W 015°57'4 8.6
2017-Nov-11 09:00N 28°52' W 015°55'3 6.7
2017-Nov-11 08:29N 28°55' W 015°54'4 7.9
2017-Nov-11 08:00N 28°58' W 015°52'4 7.9
2017-Nov-11 07:30N 29°02' W 015°50'4 7.9
2017-Nov-11 07:00N 29°05' W 015°48'4 8.0
2017-Nov-11 06:30N 29°09' W 015°45'3 6.9
2017-Nov-11 06:00N 29°08' W 015°42'4 7.6
2017-Nov-11 05:30N 29°08' W 015°37'4 7.7
2017-Nov-11 05:00N 29°07' W 015°33'6 8.0
2017-Nov-11 04:17N 29°06' W 015°26'6 8.4
2017-Nov-11 03:36N 29°05' W 015°20'10 8.2
2017-Nov-11 02:25N 29°03' W 015°09'11 8.3
2017-Nov-11 01:03N 29°03' W 014°56'0 9.1
2017-Nov-11 01:00N 29°03' W 014°56'  
2017-Nov-05 14:19N 37°31' W 000°48'3 8.3
2017-Nov-05 13:58N 37°33' W 000°44'6 9.6
2017-Nov-05 13:22N 37°37' W 000°40'3 8.0
2017-Nov-05 13:00N 37°39' W 000°38'3 6.2
2017-Nov-05 12:30N 37°42' W 000°36'3 5.8
2017-Nov-05 12:00N 37°45' W 000°35'4 5.0
2017-Nov-05 11:12N 37°49' W 000°33'4 8.1
2017-Nov-05 10:40N 37°53' W 000°31'169 3.6
2017-Nov-03 12:13N 39°26' E 002°29'2 7.5
2017-Nov-03 12:00N 39°27' E 002°31'4 7.7
2017-Nov-03 11:30N 39°29' E 002°35'4 7.6
2017-Nov-03 11:00N 39°32' E 002°38'2 3.4
2017-Nov-03 10:28N 39°34' E 002°38'  
Track history (hours):
 
Tides and Currents Weather Stations Pressure Air Temp Water Temp Dewpoint Dewpoint Depression Visibility Wind Speed Wind Dir Waves Ship Positions

Vintage I

Last reported at 2017-Nov-12 00:56 UTC. Time now 2017-Nov-25 00:06 UTC.
Position N 28°28' W 016°15'.
Warning: this ship's position is 12 days out of date.

Length 24 m.

Type: Sailing vessel. MMSI: 229260000.

Date/timePositionNaut miles runAvg speedWind from/ knotsBaromVisibWave heightAir tempDewpointWater temp
2017-Nov-12 00:56N 28°28' W 016°15'0 0.0
2017-Nov-11 23:30N 28°28' W 016°15'0 0.0
2017-Nov-11 22:57N 28°28' W 016°15'0 0.0
2017-Nov-11 22:30N 28°28' W 016°15'0 0.0
2017-Nov-11 21:57N 28°28' W 016°15'0 0.0
2017-Nov-11 21:30N 28°28' W 016°15'0 0.0
2017-Nov-11 20:57N 28°28' W 016°15'0 0.0
2017-Nov-11 20:16N 28°28' W 016°15'0 0.0
2017-Nov-11 20:01N 28°28' W 016°15'0 0.0
2017-Nov-11 19:01N 28°28' W 016°15'0 0.0
2017-Nov-11 18:30N 28°28' W 016°15'0 0.0
2017-Nov-11 17:21N 28°28' W 016°15'0 0.0
2017-Nov-11 16:48N 28°28' W 016°15'0 0.0
2017-Nov-11 16:21N 28°28' W 016°15'0 0.0
2017-Nov-11 16:00N 28°28' W 016°15'0 0.0
2017-Nov-11 15:30N 28°28' W 016°15'0 0.0
2017-Nov-11 14:48N 28°28' W 016°15'0 0.0
2017-Nov-11 14:21N 28°28' W 016°15'0 0.0
2017-Nov-11 14:00N 28°28' W 016°15'0 0.0
2017-Nov-11 13:30N 28°28' W 016°15'0 0.1
2017-Nov-11 13:00N 28°28' W 016°15'1 2.5
2017-Nov-11 12:30N 28°28' W 016°13'4 7.6
2017-Nov-11 12:00N 28°31' W 016°10'4 7.6
2017-Nov-11 11:30N 28°33' W 016°06'4 7.5
2017-Nov-11 11:00N 28°36' W 016°04'4 8.8
2017-Nov-11 10:30N 28°40' W 016°02'4 8.8
2017-Nov-11 10:00N 28°44' W 015°59'4 9.0
2017-Nov-11 09:30N 28°48' W 015°57'4 8.6
2017-Nov-11 09:00N 28°52' W 015°55'3 6.7
2017-Nov-11 08:29N 28°55' W 015°54'4 7.9
2017-Nov-11 08:00N 28°58' W 015°52'4 7.9
2017-Nov-11 07:30N 29°02' W 015°50'4 7.9
2017-Nov-11 07:00N 29°05' W 015°48'4 8.0
2017-Nov-11 06:30N 29°09' W 015°45'3 6.9
2017-Nov-11 06:00N 29°08' W 015°42'4 7.6
2017-Nov-11 05:30N 29°08' W 015°37'4 7.7
2017-Nov-11 05:00N 29°07' W 015°33'6 8.0
2017-Nov-11 04:17N 29°06' W 015°26'6 8.4
2017-Nov-11 03:36N 29°05' W 015°20'10 8.2
2017-Nov-11 02:25N 29°03' W 015°09'11 8.3
2017-Nov-11 01:03N 29°03' W 014°56'0 9.1
2017-Nov-11 01:00N 29°03' W 014°56'  
2017-Nov-05 14:19N 37°31' W 000°48'3 8.3
2017-Nov-05 13:58N 37°33' W 000°44'6 9.6
2017-Nov-05 13:22N 37°37' W 000°40'3 8.0
2017-Nov-05 13:00N 37°39' W 000°38'3 6.2
2017-Nov-05 12:30N 37°42' W 000°36'3 5.8
2017-Nov-05 12:00N 37°45' W 000°35'4 5.0
2017-Nov-05 11:12N 37°49' W 000°33'4 8.1
2017-Nov-05 10:40N 37°53' W 000°31'169 3.6
2017-Nov-03 12:13N 39°26' E 002°29'2 7.5
2017-Nov-03 12:00N 39°27' E 002°31'4 7.7
2017-Nov-03 11:30N 39°29' E 002°35'4 7.6
2017-Nov-03 11:00N 39°32' E 002°38'2 3.4
2017-Nov-03 10:28N 39°34' E 002°38'  

Dump ship's entire track history